Time;durP1;ratioP1;P1;durP2;ratioP2;P2;SDS_P1;SDS_P2;PMS_P1;PMS_P2;Temp;Humidity;BMP_temperature;BMP_pressure;BME280_temperature;BME280_humidity;BME280_pressure;Samples;Min_cycle;Max_cycle;Signal;HPM_P1;HPM_P2
2023/06/20 00:00:39;;;;;;;19.45;10.38;;;;;;;;;;5093004;28;20538;-69
2023/06/20 00:03:04;;;;;;;21.80;10.50;;;;;;;;;;5093357;28;20020;-69
2023/06/20 00:05:29;;;;;;;24.23;11.32;;;;;;;;;;5093299;28;20024;-69
2023/06/20 00:07:55;;;;;;;19.85;11.25;;;;;;;;;;5093093;28;20034;-69
2023/06/20 00:10:21;;;;;;;20.15;11.00;;;;;;;;;;5093219;28;20024;-69
2023/06/20 00:12:46;;;;;;;19.77;10.38;;;;;;;;;;5093047;28;20111;-69
2023/06/20 00:15:11;;;;;;;19.45;10.15;;;;;;;;;;5093317;28;20106;-69
2023/06/20 00:17:38;;;;;;;18.60;10.43;;;;;;;;;;5092974;28;20046;-69
2023/06/20 00:20:05;;;;;;;20.02;9.95;;;;;;;;;;5093621;28;20125;-69
2023/06/20 00:22:34;;;;;;;19.77;10.25;;;;;;;;;;5092916;28;20158;-69
2023/06/20 00:25:00;;;;;;;24.80;12.30;;;;;;;;;;5092958;28;20035;-69
2023/06/20 00:27:25;;;;;;;37.88;16.35;;;;;;;;;;5075194;28;20470;-69
2023/06/20 00:29:50;;;;;;;40.55;17.58;;;;;;;;;;5092962;28;20024;-69
2023/06/20 00:32:16;;;;;;;28.08;14.75;;;;;;;;;;5074851;28;20084;-69
2023/06/20 00:34:41;;;;;;;29.58;15.25;;;;;;;;;;5093041;28;20433;-69
2023/06/20 00:37:06;;;;;;;26.63;12.77;;;;;;;;;;5092822;28;20020;-69
2023/06/20 00:39:31;;;;;;;24.35;12.02;;;;;;;;;;5092730;28;20031;-69
2023/06/20 00:41:57;;;;;;;19.98;10.23;;;;;;;;;;5093274;28;20020;-69
2023/06/20 00:44:23;;;;;;;24.27;11.35;;;;;;;;;;5092628;28;20431;-69
2023/06/20 00:46:48;;;;;;;17.50;9.93;;;;;;;;;;5074752;28;20028;-69
2023/06/20 00:49:13;;;;;;;17.33;9.52;;;;;;;;;;5092617;28;20392;-69
2023/06/20 00:51:39;;;;;;;19.15;9.27;;;;;;;;;;5092666;28;20024;-69
2023/06/20 00:54:04;;;;;;;17.15;9.07;;;;;;;;;;5092624;28;20434;-69
2023/06/20 00:56:30;;;;;;;16.88;9.02;;;;;;;;;;5074645;28;20073;-69
2023/06/20 00:58:55;;;;;;;18.17;10.63;;;;;;;;;;5074532;28;20385;-69
2023/06/20 01:01:21;;;;;;;23.20;10.07;;;;;;;;;;5092659;28;20030;-69
2023/06/20 01:03:51;;;;;;;15.63;9.07;;;;;;;;;;5093904;28;20024;-69
2023/06/20 01:06:46;;;;;;;12.88;7.05;;;;;;;;;;5096258;28;20099;-69
2023/06/20 01:09:20;;;;;;;10.82;5.35;;;;;;;;;;5096229;28;20020;-69
2023/06/20 01:11:49;;;;;;;10.20;5.57;;;;;;;;;;5078033;28;20027;-69
2023/06/20 01:14:23;;;;;;;10.07;6.47;;;;;;;;;;5096063;28;20442;-69
2023/06/20 01:16:51;;;;;;;10.63;5.65;;;;;;;;;;5077995;28;20076;-69
2023/06/20 01:19:17;;;;;;;13.82;7.70;;;;;;;;;;5095878;28;20039;-69
2023/06/20 01:21:46;;;;;;;15.50;7.37;;;;;;;;;;5095951;28;20040;-69
2023/06/20 01:24:33;;;;;;;9.82;5.95;;;;;;;;;;5077894;28;20027;-69
2023/06/20 01:27:12;;;;;;;10.27;5.93;;;;;;;;;;5095806;28;20024;-69
2023/06/20 01:29:53;;;;;;;13.32;7.32;;;;;;;;;;5077611;28;20045;-69
2023/06/20 01:32:19;;;;;;;13.45;7.22;;;;;;;;;;5078305;28;20016;-69
2023/06/20 01:34:48;;;;;;;12.90;6.70;;;;;;;;;;5077732;28;20020;-69
2023/06/20 01:37:16;;;;;;;10.48;6.13;;;;;;;;;;5077602;28;20016;-69
2023/06/20 01:39:47;;;;;;;9.38;5.95;;;;;;;;;;5077687;28;20031;-69
2023/06/20 01:42:14;;;;;;;11.23;6.53;;;;;;;;;;5077448;28;20028;-70
2023/06/20 01:44:40;;;;;;;8.25;5.28;;;;;;;;;;5077347;28;20525;-69
2023/06/20 01:47:06;;;;;;;7.32;4.72;;;;;;;;;;5095441;28;20032;-69
2023/06/20 01:49:33;;;;;;;6.03;3.55;;;;;;;;;;5077300;28;20028;-69
2023/06/20 01:51:59;;;;;;;12.60;8.13;;;;;;;;;;5077649;28;20467;-69
2023/06/20 01:54:24;;;;;;;13.63;7.20;;;;;;;;;;5095567;28;20122;-69
2023/06/20 01:56:50;;;;;;;15.27;8.25;;;;;;;;;;5077140;28;20050;-69
2023/06/20 01:59:15;;;;;;;13.20;8.10;;;;;;;;;;5076985;28;20046;-69
2023/06/20 02:01:42;;;;;;;12.52;7.38;;;;;;;;;;5095269;28;20032;-69
2023/06/20 02:04:08;;;;;;;10.77;6.72;;;;;;;;;;5095378;28;20073;-69
2023/06/20 02:06:33;;;;;;;11.32;6.47;;;;;;;;;;5077094;28;20028;-69
2023/06/20 02:08:59;;;;;;;10.48;6.20;;;;;;;;;;5076925;28;20039;-69
2023/06/20 02:11:24;;;;;;;10.77;5.35;;;;;;;;;;5094941;28;20031;-69
2023/06/20 02:13:50;;;;;;;7.60;5.13;;;;;;;;;;5080086;28;20028;-69
2023/06/20 02:16:16;;;;;;;8.05;5.32;;;;;;;;;;5067657;28;20024;-69
2023/06/20 02:18:41;;;;;;;11.93;7.38;;;;;;;;;;5076566;28;20386;-69
2023/06/20 02:21:20;;;;;;;8.05;5.43;;;;;;;;;;5094307;28;20095;-69
2023/06/20 02:23:49;;;;;;;15.30;5.60;;;;;;;;;;5076361;28;20027;-69
2023/06/20 02:26:17;;;;;;;6.95;5.47;;;;;;;;;;5094609;28;20111;-69
2023/06/20 02:28:45;;;;;;;15.82;7.13;;;;;;;;;;5094639;28;20106;-69
2023/06/20 02:31:16;;;;;;;10.65;6.50;;;;;;;;;;5076420;28;20512;-69
2023/06/20 02:33:44;;;;;;;39.10;8.90;;;;;;;;;;5076135;28;20500;-69
2023/06/20 02:36:10;;;;;;;12.38;7.18;;;;;;;;;;5076650;28;20027;-69
2023/06/20 02:38:35;;;;;;;10.48;5.88;;;;;;;;;;5057872;28;20024;-69
2023/06/20 02:41:00;;;;;;;8.82;5.95;;;;;;;;;;5056225;28;20111;-69
2023/06/20 02:43:26;;;;;;;13.73;7.18;;;;;;;;;;5073812;28;20094;-69
2023/06/20 02:46:10;;;;;;;17.17;8.80;;;;;;;;;;5087672;28;20026;-69
2023/06/20 02:48:47;;;;;;;11.75;7.82;;;;;;;;;;5076020;28;20028;-69
2023/06/20 02:51:23;;;;;;;13.10;7.97;;;;;;;;;;5059700;28;20024;-69
2023/06/20 02:53:50;;;;;;;12.50;8.10;;;;;;;;;;5073843;28;20400;-69
2023/06/20 02:56:15;;;;;;;8.43;6.40;;;;;;;;;;5055919;28;20436;-69
2023/06/20 02:58:45;;;;;;;11.48;6.97;;;;;;;;;;5055882;28;20029;-69
2023/06/20 03:01:10;;;;;;;9.85;5.68;;;;;;;;;;5074398;28;20041;-69
2023/06/20 03:03:42;;;;;;;6.47;4.75;;;;;;;;;;5064582;28;20161;-69
2023/06/20 03:06:09;;;;;;;7.43;5.05;;;;;;;;;;5059519;28;20114;-69
2023/06/20 03:08:38;;;;;;;20.13;8.25;;;;;;;;;;5075897;28;20047;-69
2023/06/20 03:11:04;;;;;;;9.77;5.82;;;;;;;;;;5075867;28;20016;-70
2023/06/20 03:13:29;;;;;;;11.90;7.75;;;;;;;;;;5083997;28;20383;-69
2023/06/20 03:15:57;;;;;;;15.27;8.25;;;;;;;;;;5073658;28;20501;-69
2023/06/20 03:18:22;;;;;;;16.23;7.72;;;;;;;;;;5073373;28;20565;-69
2023/06/20 03:20:48;;;;;;;14.70;8.40;;;;;;;;;;5055853;28;20178;-69
2023/06/20 03:23:14;;;;;;;18.00;8.18;;;;;;;;;;5073697;28;20024;-69
2023/06/20 03:25:39;;;;;;;11.30;6.50;;;;;;;;;;5055208;28;20089;-70
2023/06/20 03:28:05;;;;;;;17.85;8.45;;;;;;;;;;5073565;28;20025;-69
2023/06/20 03:30:30;;;;;;;13.27;7.82;;;;;;;;;;5073280;28;20028;-69
2023/06/20 03:32:55;;;;;;;16.23;8.55;;;;;;;;;;5073743;28;20032;-70
2023/06/20 03:35:20;;;;;;;10.52;6.78;;;;;;;;;;5073557;28;20616;-69
2023/06/20 03:37:46;;;;;;;14.90;7.22;;;;;;;;;;5073586;28;20077;-69
2023/06/20 03:40:11;;;;;;;20.42;8.77;;;;;;;;;;5073553;28;20017;-69
2023/06/20 03:42:37;;;;;;;10.50;6.53;;;;;;;;;;5078756;28;20028;-69
2023/06/20 03:45:02;;;;;;;15.55;8.10;;;;;;;;;;5093537;28;20028;-69
2023/06/20 03:47:28;;;;;;;21.77;7.78;;;;;;;;;;5075222;28;20020;-69
2023/06/20 03:49:53;;;;;;;25.67;8.68;;;;;;;;;;5093299;28;20138;-69
2023/06/20 03:52:18;;;;;;;14.27;7.90;;;;;;;;;;5093438;28;20024;-69
2023/06/20 03:54:44;;;;;;;12.27;6.97;;;;;;;;;;5093316;28;20020;-69
2023/06/20 03:57:09;;;;;;;10.43;6.57;;;;;;;;;;5093464;28;20031;-69
2023/06/20 03:59:34;;;;;;;15.10;7.55;;;;;;;;;;5093678;28;20024;-69
2023/06/20 04:02:00;;;;;;;13.38;7.53;;;;;;;;;;5093422;28;20466;-69
2023/06/20 04:04:25;;;;;;;15.52;6.90;;;;;;;;;;5075529;28;20031;-69
2023/06/20 04:06:50;;;;;;;14.32;9.82;;;;;;;;;;5093427;28;20443;-69
2023/06/20 04:09:17;;;;;;;14.98;7.90;;;;;;;;;;5093423;28;20074;-69
2023/06/20 04:11:43;;;;;;;15.35;7.57;;;;;;;;;;5074807;28;20028;-69
2023/06/20 04:14:08;;;;;;;10.70;6.57;;;;;;;;;;5077121;28;20528;-69
2023/06/20 04:16:33;;;;;;;16.42;7.70;;;;;;;;;;5072948;28;20048;-69
2023/06/20 04:18:58;;;;;;;8.90;5.93;;;;;;;;;;5072858;28;20060;-70
2023/06/20 04:21:24;;;;;;;12.13;6.50;;;;;;;;;;5073110;28;20025;-69
2023/06/20 04:23:49;;;;;;;11.35;7.03;;;;;;;;;;5073067;28;20028;-69
2023/06/20 04:26:15;;;;;;;17.13;7.05;;;;;;;;;;5073213;28;20111;-69
2023/06/20 04:28:40;;;;;;;9.90;5.55;;;;;;;;;;5055902;28;20029;-69
2023/06/20 04:31:05;;;;;;;12.73;7.20;;;;;;;;;;5073292;28;20534;-69
2023/06/20 04:33:30;;;;;;;16.85;7.75;;;;;;;;;;5073313;28;20036;-69
2023/06/20 04:35:57;;;;;;;10.50;7.20;;;;;;;;;;5073242;28;20394;-69
2023/06/20 04:38:22;;;;;;;14.02;6.45;;;;;;;;;;5056411;28;20031;-70
2023/06/20 04:40:47;;;;;;;24.15;7.28;;;;;;;;;;5061603;28;20489;-69
2023/06/20 04:43:13;;;;;;;11.38;6.25;;;;;;;;;;5097402;28;20020;-69
2023/06/20 04:45:38;;;;;;;20.67;7.68;;;;;;;;;;5097063;28;20020;-69
2023/06/20 04:48:04;;;;;;;17.20;8.02;;;;;;;;;;5097470;28;20024;-69
2023/06/20 04:50:29;;;;;;;13.02;7.35;;;;;;;;;;5097214;28;20076;-69
2023/06/20 04:52:55;;;;;;;12.55;6.47;;;;;;;;;;5097363;28;20553;-69
2023/06/20 04:55:21;;;;;;;15.60;7.88;;;;;;;;;;5097176;28;20027;-69
2023/06/20 04:57:47;;;;;;;14.68;7.57;;;;;;;;;;5078852;28;20020;-69
2023/06/20 05:00:14;;;;;;;26.17;10.50;;;;;;;;;;5097134;28;20481;-69
2023/06/20 05:02:42;;;;;;;17.85;8.05;;;;;;;;;;5096977;28;20551;-69
2023/06/20 05:05:10;;;;;;;14.70;7.35;;;;;;;;;;5097010;28;20055;-69
2023/06/20 05:07:36;;;;;;;20.48;9.52;;;;;;;;;;5078821;28;20020;-69
2023/06/20 05:10:02;;;;;;;24.17;9.20;;;;;;;;;;5078817;28;20020;-69
2023/06/20 05:12:27;;;;;;;15.18;7.47;;;;;;;;;;5096898;28;20031;-69
2023/06/20 05:14:53;;;;;;;17.35;8.13;;;;;;;;;;5078399;28;20016;-69
2023/06/20 05:17:18;;;;;;;16.58;7.65;;;;;;;;;;5096361;28;20527;-69
2023/06/20 05:19:43;;;;;;;20.00;7.70;;;;;;;;;;5078566;28;20035;-69
2023/06/20 05:22:08;;;;;;;19.83;9.20;;;;;;;;;;5097023;28;20470;-69
2023/06/20 05:24:34;;;;;;;17.17;7.22;;;;;;;;;;5097832;28;20024;-69
2023/06/20 05:26:59;;;;;;;18.77;8.73;;;;;;;;;;5097309;28;20069;-69
2023/06/20 05:29:24;;;;;;;28.52;12.30;;;;;;;;;;5096959;28;20055;-69
2023/06/20 05:31:50;;;;;;;22.35;8.95;;;;;;;;;;5097471;28;20035;-69
2023/06/20 05:34:15;;;;;;;16.73;7.22;;;;;;;;;;5096691;28;20102;-69
2023/06/20 05:36:40;;;;;;;26.35;11.27;;;;;;;;;;5096582;28;20390;-69
2023/06/20 05:39:08;;;;;;;24.42;10.30;;;;;;;;;;5096383;28;20035;-69
2023/06/20 05:41:34;;;;;;;24.52;10.65;;;;;;;;;;5096466;28;20028;-69
2023/06/20 05:43:59;;;;;;;20.30;9.50;;;;;;;;;;5078152;28;20469;-69
2023/06/20 05:46:24;;;;;;;22.00;9.38;;;;;;;;;;5078066;28;20123;-69
2023/06/20 05:48:50;;;;;;;26.20;11.63;;;;;;;;;;5095550;28;20035;-69
2023/06/20 05:51:15;;;;;;;27.27;11.00;;;;;;;;;;5096324;28;20035;-69
2023/06/20 05:53:41;;;;;;;26.60;10.77;;;;;;;;;;5077715;28;20085;-69
2023/06/20 05:56:08;;;;;;;28.95;10.82;;;;;;;;;;5095682;28;20031;-69
2023/06/20 05:58:33;;;;;;;22.95;10.02;;;;;;;;;;5077205;28;20055;-70
2023/06/20 06:00:58;;;;;;;25.77;10.52;;;;;;;;;;5077350;28;20032;-69
2023/06/20 06:03:24;;;;;;;22.08;10.50;;;;;;;;;;5095478;28;20028;-70
2023/06/20 06:05:49;;;;;;;28.10;10.98;;;;;;;;;;5095188;28;20024;-70
2023/06/20 06:08:15;;;;;;;20.65;10.43;;;;;;;;;;5095479;28;20020;-69
2023/06/20 06:10:41;;;;;;;25.45;10.82;;;;;;;;;;5095087;28;20392;-69
2023/06/20 06:13:06;;;;;;;29.73;11.15;;;;;;;;;;5077349;28;20020;-69
2023/06/20 06:15:32;;;;;;;23.45;10.55;;;;;;;;;;5094959;28;20469;-69
2023/06/20 06:17:57;;;;;;;26.90;11.23;;;;;;;;;;5095037;28;20019;-69
2023/06/20 06:20:23;;;;;;;19.63;9.38;;;;;;;;;;5094774;28;20069;-69
2023/06/20 06:22:49;;;;;;;26.35;11.93;;;;;;;;;;5077255;28;20047;-69
2023/06/20 06:25:14;;;;;;;31.27;12.88;;;;;;;;;;5076661;28;20402;-69
2023/06/20 06:27:40;;;;;;;24.05;11.52;;;;;;;;;;5094987;28;20366;-69
2023/06/20 06:30:06;;;;;;;24.35;11.90;;;;;;;;;;5094717;28;20024;-69
2023/06/20 06:32:33;;;;;;;24.95;13.10;;;;;;;;;;5095324;28;20030;-69
2023/06/20 06:34:59;;;;;;;19.05;10.77;;;;;;;;;;5076578;28;20485;-69
2023/06/20 06:37:28;;;;;;;17.35;9.80;;;;;;;;;;5094567;28;20020;-69
2023/06/20 06:39:55;;;;;;;23.85;11.98;;;;;;;;;;5076262;28;20500;-70
2023/06/20 06:42:20;;;;;;;22.60;10.18;;;;;;;;;;5076486;28;20038;-70
2023/06/20 06:44:46;;;;;;;21.23;10.90;;;;;;;;;;5076161;28;20107;-69
2023/06/20 06:47:11;;;;;;;16.90;10.43;;;;;;;;;;5076350;28;20039;-69
2023/06/20 06:49:36;;;;;;;21.80;11.07;;;;;;;;;;5094697;28;20111;-69
2023/06/20 06:52:02;;;;;;;20.13;10.95;;;;;;;;;;5090408;28;20035;-70
2023/06/20 06:54:27;;;;;;;18.58;11.48;;;;;;;;;;5067569;28;20027;-70
2023/06/20 06:56:52;;;;;;;17.10;10.32;;;;;;;;;;5069436;28;20044;-70
2023/06/20 06:59:19;;;;;;;18.85;10.48;;;;;;;;;;5071782;28;20532;-70
2023/06/20 07:01:44;;;;;;;21.42;11.52;;;;;;;;;;5078378;28;20107;-70
2023/06/20 07:04:10;;;;;;;18.02;11.15;;;;;;;;;;5076096;28;20485;-70
2023/06/20 07:06:35;;;;;;;15.88;9.70;;;;;;;;;;5093990;28;20032;-70
2023/06/20 07:09:00;;;;;;;17.23;9.98;;;;;;;;;;5093894;28;20528;-70
2023/06/20 07:11:26;;;;;;;17.15;9.20;;;;;;;;;;5075965;28;20016;-69
2023/06/20 07:13:51;;;;;;;17.50;9.45;;;;;;;;;;5093665;28;20540;-72
2023/06/20 07:16:16;;;;;;;12.82;9.25;;;;;;;;;;5075696;28;20027;-70
2023/06/20 07:18:42;;;;;;;15.43;8.90;;;;;;;;;;5093944;28;20053;-70
2023/06/20 07:21:07;;;;;;;14.57;9.27;;;;;;;;;;5093757;28;20032;-69
2023/06/20 07:23:35;;;;;;;14.07;9.38;;;;;;;;;;5093790;28;20508;-69
2023/06/20 07:26:00;;;;;;;15.25;9.25;;;;;;;;;;5093386;28;20035;-70
2023/06/20 07:28:26;;;;;;;14.13;8.80;;;;;;;;;;5075282;28;20024;-70
2023/06/20 07:30:52;;;;;;;14.50;8.95;;;;;;;;;;5093570;28;20031;-69
2023/06/20 07:33:17;;;;;;;15.05;9.88;;;;;;;;;;5093534;28;20028;-70
2023/06/20 07:35:43;;;;;;;11.95;8.23;;;;;;;;;;5093422;28;20023;-70
2023/06/20 07:38:08;;;;;;;15.73;9.63;;;;;;;;;;5093250;28;20031;-70
2023/06/20 07:40:33;;;;;;;14.98;9.32;;;;;;;;;;5093536;28;20024;-70
2023/06/20 07:42:59;;;;;;;11.68;8.00;;;;;;;;;;5093416;28;20024;-70
2023/06/20 07:45:24;;;;;;;13.25;8.90;;;;;;;;;;5093353;28;20473;-71
2023/06/20 07:47:49;;;;;;;16.60;9.50;;;;;;;;;;5093593;28;20111;-71
2023/06/20 07:50:14;;;;;;;15.75;10.63;;;;;;;;;;5093877;28;20031;-72
2023/06/20 07:52:40;;;;;;;18.33;10.55;;;;;;;;;;5093038;28;20035;-71
2023/06/20 07:55:06;;;;;;;14.90;9.07;;;;;;;;;;5093076;28;20023;-71
2023/06/20 07:57:31;;;;;;;14.18;9.13;;;;;;;;;;5092970;28;20024;-72
2023/06/20 07:59:56;;;;;;;14.63;9.65;;;;;;;;;;5093178;28;20537;-72
2023/06/20 08:02:22;;;;;;;17.52;9.68;;;;;;;;;;5093199;28;20497;-72
2023/06/20 08:04:48;;;;;;;15.95;10.68;;;;;;;;;;5093363;28;20030;-72
2023/06/20 08:07:13;;;;;;;17.20;10.80;;;;;;;;;;5093085;28;20028;-71
2023/06/20 08:09:38;;;;;;;17.73;11.27;;;;;;;;;;5075105;28;20044;-72
2023/06/20 08:12:04;;;;;;;18.42;11.95;;;;;;;;;;5093418;28;20049;-72
2023/06/20 08:14:29;;;;;;;13.50;9.10;;;;;;;;;;5078931;28;20027;-70
2023/06/20 08:16:55;;;;;;;16.77;10.13;;;;;;;;;;5097205;28;20016;-71
2023/06/20 08:19:20;;;;;;;15.52;9.73;;;;;;;;;;5096857;28;20081;-72
2023/06/20 08:21:45;;;;;;;12.82;8.27;;;;;;;;;;5097148;28;20032;-72
2023/06/20 08:24:10;;;;;;;9.15;6.53;;;;;;;;;;5096923;28;20032;-71
2023/06/20 08:26:36;;;;;;;10.88;7.00;;;;;;;;;;5096553;28;20023;-72
2023/06/20 08:29:01;;;;;;;11.60;7.65;;;;;;;;;;5082160;28;20051;-72
2023/06/20 08:31:36;;;;;;;15.75;10.52;;;;;;;;;;5095501;28;20115;-72
2023/06/20 08:34:04;;;;;;;11.85;8.23;;;;;;;;;;5075822;28;20021;-70
2023/06/20 08:36:30;;;;;;;11.57;7.80;;;;;;;;;;5076563;28;20024;-70
2023/06/20 08:38:55;;;;;;;11.45;8.00;;;;;;;;;;5058634;28;20090;-69
2023/06/20 08:41:25;;;;;;;14.57;9.20;;;;;;;;;;5092024;28;20024;-69
2023/06/20 08:43:50;;;;;;;9.25;6.18;;;;;;;;;;5078483;28;20072;-69
2023/06/20 08:46:15;;;;;;;10.13;6.75;;;;;;;;;;5096606;28;20019;-69
2023/06/20 08:48:41;;;;;;;11.82;7.90;;;;;;;;;;5078466;28;20384;-69
2023/06/20 08:51:07;;;;;;;9.65;6.35;;;;;;;;;;5096531;28;20035;-69
2023/06/20 08:53:33;;;;;;;12.07;6.97;;;;;;;;;;5096514;28;20020;-69
2023/06/20 08:55:59;;;;;;;9.45;6.63;;;;;;;;;;5078334;28;20020;-69
2023/06/20 08:58:24;;;;;;;12.40;7.82;;;;;;;;;;5078135;28;20076;-69
2023/06/20 09:00:50;;;;;;;10.85;8.15;;;;;;;;;;5096573;28;20497;-69
2023/06/20 09:03:15;;;;;;;13.48;9.13;;;;;;;;;;5096691;28;20562;-69
2023/06/20 09:05:42;;;;;;;11.18;7.00;;;;;;;;;;5096758;28;20058;-69
2023/06/20 09:08:07;;;;;;;10.95;6.90;;;;;;;;;;5096864;28;20024;-69
2023/06/20 09:10:33;;;;;;;11.30;7.30;;;;;;;;;;5078238;28;20024;-71
2023/06/20 09:12:58;;;;;;;11.77;8.18;;;;;;;;;;5078497;28;20386;-70
2023/06/20 09:15:25;;;;;;;11.25;7.72;;;;;;;;;;5096338;28;20023;-70
2023/06/20 09:17:52;;;;;;;12.02;7.50;;;;;;;;;;5078110;28;20032;-70
2023/06/20 09:20:17;;;;;;;10.82;7.18;;;;;;;;;;5096113;28;20020;-70
2023/06/20 09:22:43;;;;;;;11.68;7.18;;;;;;;;;;5077527;28;20024;-69
2023/06/20 09:25:12;;;;;;;11.05;8.07;;;;;;;;;;5094697;28;20020;-69
2023/06/20 09:27:41;;;;;;;12.05;7.22;;;;;;;;;;5096170;28;20027;-69
2023/06/20 09:30:07;;;;;;;10.02;6.72;;;;;;;;;;5077408;28;20039;-69
2023/06/20 09:32:35;;;;;;;10.75;7.18;;;;;;;;;;5095844;28;20035;-69
2023/06/20 09:35:02;;;;;;;11.30;7.57;;;;;;;;;;5095397;28;20020;-69
2023/06/20 09:37:49;;;;;;;9.48;6.43;;;;;;;;;;5095728;28;20016;-70
2023/06/20 09:40:15;;;;;;;13.18;7.55;;;;;;;;;;5095123;28;20035;-69
2023/06/20 09:42:42;;;;;;;8.32;5.65;;;;;;;;;;5060497;28;20080;-69
2023/06/20 09:45:10;;;;;;;11.98;7.93;;;;;;;;;;5077222;28;20016;-69
2023/06/20 09:47:36;;;;;;;8.65;5.88;;;;;;;;;;5077368;28;20119;-69
2023/06/20 09:50:13;;;;;;;10.35;6.60;;;;;;;;;;5094978;28;20027;-69
2023/06/20 09:53:02;;;;;;;13.68;6.97;;;;;;;;;;5077881;28;20020;-69
2023/06/20 09:55:35;;;;;;;12.07;6.05;;;;;;;;;;5077282;28;20070;-72
2023/06/20 09:58:04;;;;;;;11.85;7.18;;;;;;;;;;5095321;28;20116;-71
2023/06/20 10:00:31;;;;;;;9.43;5.72;;;;;;;;;;5076741;28;20521;-71
2023/06/20 10:02:59;;;;;;;9.65;6.43;;;;;;;;;;5070523;28;20084;-71
2023/06/20 10:05:27;;;;;;;10.98;5.97;;;;;;;;;;5056650;28;20021;-71
2023/06/20 10:07:57;;;;;;;11.95;7.35;;;;;;;;;;5058515;28;20024;-71
2023/06/20 10:10:22;;;;;;;13.65;7.38;;;;;;;;;;5077718;28;20103;-71
2023/06/20 10:12:48;;;;;;;10.25;6.70;;;;;;;;;;5052402;28;20028;-71
2023/06/20 10:15:16;;;;;;;10.98;7.20;;;;;;;;;;5075896;28;20142;-71
2023/06/20 10:17:43;;;;;;;8.38;5.47;;;;;;;;;;5077002;28;20026;-71
2023/06/20 10:20:24;;;;;;;9.85;6.65;;;;;;;;;;5072136;28;20028;-71
2023/06/20 10:22:49;;;;;;;10.70;7.68;;;;;;;;;;5094652;28;20466;-71
2023/06/20 10:25:18;;;;;;;9.38;6.22;;;;;;;;;;5094125;28;20020;-71
2023/06/20 10:28:03;;;;;;;8.80;5.70;;;;;;;;;;5060886;28;20477;-71
2023/06/20 10:30:49;;;;;;;8.48;5.18;;;;;;;;;;5073409;28;20032;-71
2023/06/20 10:33:14;;;;;;;11.13;6.43;;;;;;;;;;5074479;28;20024;-72
2023/06/20 10:35:52;;;;;;;8.13;5.63;;;;;;;;;;5055841;28;20227;-69
2023/06/20 10:38:18;;;;;;;8.90;5.95;;;;;;;;;;5087098;28;20042;-69
2023/06/20 10:40:44;;;;;;;8.13;5.28;;;;;;;;;;5094177;28;20555;-69
2023/06/20 10:43:15;;;;;;;9.63;4.85;;;;;;;;;;5094194;28;20432;-69
2023/06/20 10:45:52;;;;;;;7.43;5.20;;;;;;;;;;5094060;28;20039;-69
2023/06/20 10:48:19;;;;;;;8.85;5.93;;;;;;;;;;5075989;28;20081;-69
2023/06/20 10:50:44;;;;;;;9.23;5.55;;;;;;;;;;5076363;28;20020;-69
2023/06/20 10:53:09;;;;;;;8.90;5.80;;;;;;;;;;5093962;28;20038;-69
2023/06/20 10:55:37;;;;;;;6.25;4.80;;;;;;;;;;5059281;28;20123;-69
2023/06/20 10:58:03;;;;;;;6.88;5.50;;;;;;;;;;5093944;28;20396;-69
2023/06/20 11:00:28;;;;;;;7.03;4.72;;;;;;;;;;5093741;28;20052;-69
2023/06/20 11:02:55;;;;;;;7.85;5.40;;;;;;;;;;5094207;28;20081;-69
2023/06/20 11:05:26;;;;;;;8.07;5.82;;;;;;;;;;5075698;28;20028;-69
2023/06/20 11:07:54;;;;;;;10.57;6.03;;;;;;;;;;5085020;28;20459;-69
2023/06/20 11:10:20;;;;;;;6.13;4.50;;;;;;;;;;5076960;28;20181;-69
2023/06/20 11:12:46;;;;;;;6.43;4.32;;;;;;;;;;5080264;28;20031;-69
2023/06/20 11:15:22;;;;;;;6.82;4.88;;;;;;;;;;5093597;28;20099;-69
2023/06/20 11:17:48;;;;;;;7.15;5.00;;;;;;;;;;5076149;28;20024;-69
2023/06/20 11:20:13;;;;;;;8.07;6.10;;;;;;;;;;5076071;28;20362;-69
2023/06/20 11:22:39;;;;;;;7.55;5.32;;;;;;;;;;5076079;28;20060;-69
2023/06/20 11:25:06;;;;;;;8.90;5.93;;;;;;;;;;5075964;28;20020;-69
2023/06/20 11:27:31;;;;;;;8.65;5.95;;;;;;;;;;5094200;28;20024;-70
2023/06/20 11:29:56;;;;;;;9.70;6.13;;;;;;;;;;5093980;28;20032;-69
2023/06/20 11:32:21;;;;;;;7.88;5.22;;;;;;;;;;5076405;28;20047;-69
2023/06/20 11:34:54;;;;;;;6.82;5.10;;;;;;;;;;5093990;28;20050;-69
2023/06/20 11:37:20;;;;;;;8.55;5.30;;;;;;;;;;5094635;28;20026;-69
2023/06/20 11:39:46;;;;;;;9.93;5.72;;;;;;;;;;5093824;28;20020;-69
2023/06/20 11:42:16;;;;;;;7.72;5.35;;;;;;;;;;5093908;28;20024;-70
2023/06/20 11:44:41;;;;;;;6.50;5.70;;;;;;;;;;5075946;28;20455;-70
2023/06/20 11:47:06;;;;;;;8.07;5.85;;;;;;;;;;5093574;28;20109;-72
2023/06/20 11:49:33;;;;;;;8.23;5.43;;;;;;;;;;5075897;28;20108;-71
2023/06/20 11:52:00;;;;;;;8.48;5.55;;;;;;;;;;5076045;28;20398;-71
2023/06/20 11:54:26;;;;;;;10.80;5.45;;;;;;;;;;5075897;28;20027;-70
2023/06/20 11:56:52;;;;;;;8.20;5.35;;;;;;;;;;5093872;28;20102;-70
2023/06/20 11:59:25;;;;;;;7.88;4.78;;;;;;;;;;5093605;28;20513;-70
2023/06/20 12:01:50;;;;;;;6.00;4.30;;;;;;;;;;5075503;28;20036;-69
2023/06/20 12:04:20;;;;;;;7.85;5.43;;;;;;;;;;5075333;28;20028;-69
2023/06/20 12:06:53;;;;;;;6.75;4.25;;;;;;;;;;5093428;28;20023;-69
2023/06/20 12:09:18;;;;;;;7.63;4.60;;;;;;;;;;5093378;28;20107;-69
2023/06/20 12:11:52;;;;;;;7.43;4.40;;;;;;;;;;5093565;28;20056;-69
2023/06/20 12:14:18;;;;;;;8.85;4.80;;;;;;;;;;5075355;28;20024;-70
2023/06/20 12:16:43;;;;;;;5.65;4.60;;;;;;;;;;5093356;28;20417;-69
2023/06/20 12:19:08;;;;;;;7.75;4.60;;;;;;;;;;5093340;28;20474;-69
2023/06/20 12:21:38;;;;;;;6.47;4.38;;;;;;;;;;5093163;28;20075;-69
2023/06/20 12:24:04;;;;;;;5.93;4.10;;;;;;;;;;5093304;28;20020;-70
2023/06/20 12:26:29;;;;;;;8.02;4.47;;;;;;;;;;5093298;28;20046;-69
2023/06/20 12:28:54;;;;;;;6.65;4.57;;;;;;;;;;5093117;28;20045;-69
2023/06/20 12:31:20;;;;;;;6.18;4.68;;;;;;;;;;5093094;28;20413;-70
2023/06/20 12:33:45;;;;;;;6.32;3.95;;;;;;;;;;5093269;28;20024;-71
2023/06/20 12:36:10;;;;;;;5.60;4.20;;;;;;;;;;5093177;28;20077;-70
2023/06/20 12:38:36;;;;;;;6.28;3.90;;;;;;;;;;5093166;28;20020;-70
2023/06/20 12:41:03;;;;;;;6.00;3.72;;;;;;;;;;5092761;28;20023;-70
2023/06/20 12:43:28;;;;;;;6.32;3.80;;;;;;;;;;5092849;28;20032;-70
2023/06/20 12:45:53;;;;;;;4.43;3.00;;;;;;;;;;5074887;28;20073;-70
2023/06/20 12:48:19;;;;;;;6.22;3.15;;;;;;;;;;5092833;28;20066;-70
2023/06/20 12:50:44;;;;;;;5.78;3.47;;;;;;;;;;5092982;28;20408;-70
2023/06/20 12:53:10;;;;;;;4.72;3.60;;;;;;;;;;5092818;28;20142;-70
2023/06/20 12:55:35;;;;;;;5.53;3.55;;;;;;;;;;5074542;28;20012;-71
2023/06/20 12:58:01;;;;;;;5.30;2.95;;;;;;;;;;5074571;28;20032;-70
2023/06/20 13:00:28;;;;;;;7.55;3.42;;;;;;;;;;5095284;28;20489;-70
2023/06/20 13:02:53;;;;;;;4.30;2.97;;;;;;;;;;5078473;28;20024;-70
2023/06/20 13:05:18;;;;;;;4.38;2.80;;;;;;;;;;5096394;28;20024;-70
2023/06/20 13:07:44;;;;;;;4.90;3.45;;;;;;;;;;5096416;28;20121;-70
2023/06/20 13:10:09;;;;;;;5.63;3.20;;;;;;;;;;5096656;28;20020;-70
2023/06/20 13:12:35;;;;;;;5.18;2.78;;;;;;;;;;5078013;28;20020;-70
2023/06/20 13:15:07;;;;;;;4.53;2.85;;;;;;;;;;5096306;28;20020;-70
2023/06/20 13:17:32;;;;;;;4.75;3.17;;;;;;;;;;5078455;28;20024;-70
2023/06/20 13:19:58;;;;;;;5.28;2.90;;;;;;;;;;5078040;28;20519;-70
2023/06/20 13:22:23;;;;;;;5.10;3.50;;;;;;;;;;5096362;28;20031;-70
2023/06/20 13:24:49;;;;;;;5.03;3.10;;;;;;;;;;5078243;28;20020;-70
2023/06/20 13:27:14;;;;;;;4.50;2.80;;;;;;;;;;5096028;28;20115;-70
2023/06/20 13:29:40;;;;;;;6.18;2.85;;;;;;;;;;5095879;28;20028;-71
2023/06/20 13:32:05;;;;;;;7.45;3.20;;;;;;;;;;5096604;28;20466;-71
2023/06/20 13:34:31;;;;;;;5.15;3.13;;;;;;;;;;5095717;28;20043;-70
2023/06/20 13:36:57;;;;;;;3.85;2.85;;;;;;;;;;5078004;28;20103;-70
2023/06/20 13:39:26;;;;;;;5.65;3.03;;;;;;;;;;5095656;28;20031;-70
2023/06/20 13:41:52;;;;;;;6.07;3.10;;;;;;;;;;5095938;28;20066;-70
2023/06/20 13:44:17;;;;;;;5.35;2.70;;;;;;;;;;5095652;28;20531;-70
2023/06/20 13:46:43;;;;;;;3.70;2.88;;;;;;;;;;5095894;28;20420;-70
2023/06/20 13:49:08;;;;;;;4.03;2.70;;;;;;;;;;5077384;28;20055;-70
2023/06/20 13:51:33;;;;;;;4.25;2.40;;;;;;;;;;5096281;28;20047;-70
2023/06/20 13:53:59;;;;;;;4.50;2.40;;;;;;;;;;5095941;28;20074;-70
2023/06/20 13:56:24;;;;;;;4.57;2.50;;;;;;;;;;5095656;28;20031;-71
2023/06/20 13:58:50;;;;;;;5.00;2.25;;;;;;;;;;5095621;28;20031;-70
2023/06/20 14:01:15;;;;;;;4.80;2.30;;;;;;;;;;5095471;28;20024;-70
2023/06/20 14:03:40;;;;;;;3.47;2.10;;;;;;;;;;5077459;28;20077;-70
2023/06/20 14:06:06;;;;;;;4.32;2.15;;;;;;;;;;5095653;28;20020;-70
2023/06/20 14:08:31;;;;;;;4.43;2.33;;;;;;;;;;5077297;28;20054;-71
2023/06/20 14:10:56;;;;;;;4.13;2.63;;;;;;;;;;5094685;28;20020;-70
2023/06/20 14:13:22;;;;;;;3.25;2.33;;;;;;;;;;5095138;28;20034;-70
2023/06/20 14:15:47;;;;;;;5.25;2.40;;;;;;;;;;5081118;28;20028;-70
2023/06/20 14:18:13;;;;;;;3.72;2.28;;;;;;;;;;5086567;28;20036;-70
2023/06/20 14:20:39;;;;;;;3.88;2.42;;;;;;;;;;5080354;28;20106;-71
2023/06/20 14:23:04;;;;;;;3.60;2.30;;;;;;;;;;5066254;28;20045;-70
2023/06/20 14:25:29;;;;;;;3.20;2.17;;;;;;;;;;5086382;28;20086;-70
2023/06/20 14:27:54;;;;;;;3.85;2.58;;;;;;;;;;5076833;28;20070;-70
2023/06/20 14:30:20;;;;;;;4.35;2.58;;;;;;;;;;5086137;28;20417;-70